Flight Track Log - Related Links

Times and Time Zones

All times are in EDT time to prevent confusion due to time zone crossing. See the EGF3046 flight status page for this flight to view local times or setup timezone preferences in your user account.

Time Position Orientation Groundspeed Altitude Reporting Facility
EDT Latitude Longitude Course Direction KTS MPH feet Rate Location/Type
Sat 03:58:54 PM 41.9333 -87.9167 66° East 179 206 2,000  Level Chicago TRACON
Sat 03:59:54 PM 41.9000 -87.8833 143° Southeast 220 253 3,700 1,421 Climbing Chicago TRACON
Sat 04:00:48 PM 41.8833 -87.8000 105° East 279 321 4,700 678 Climbing Chicago TRACON
Sat 04:01:00 PM 42.0973 -87.5352 59° Northeast  Level FlightAware Approximate
Sat 04:01:49 PM 41.9000 -87.7000 77° East 286 329 5,000  Level Chicago TRACON
Sat 04:02:00 PM 42.1504 -87.4156 66° East  Level FlightAware Approximate
Sat 04:02:49 PM 41.9167 -87.6000 77° East 280 322 5,000  Level Chicago TRACON
Sat 04:03:00 PM 42.1928 -87.2884 66° East  Level FlightAware Approximate
Sat 04:04:00 PM 42.2357 -87.1597 66° East  Level FlightAware Approximate
Sat 04:04:20 PM 41.9958 -87.4908 46° Northeast 287 330 6,700  Level Chicago Center
Sat 04:05:22 PM 42.0656 -87.4606 18° North 286 329 8,800 1,984 Climbing Chicago Center
Sat 04:06:24 PM 42.1169 -87.3803 49° Northeast 285 328 10,800 1,951 Climbing Chicago Center
Sat 04:07:25 PM 42.1731 -87.2672 56° Northeast 302 348 12,800 1,463 Climbing Chicago Center
Sat 04:08:27 PM 42.2233 -87.1717 55° Northeast 313 360 13,800 1,016 Climbing Chicago Center
Sat 04:09:29 PM 42.2767 -87.0669 55° Northeast 335 386 14,900 1,065 Climbing Chicago Center
Sat 04:10:31 PM 42.2844 -86.9292 86° East 365 420 16,000 1,065 Climbing Chicago Center
Sat 04:11:33 PM 42.2889 -86.7883 88° East 376 433 17,100 1,220 Climbing Chicago Center
Sat 04:12:34 PM 42.2964 -86.6253 86° East 379 436 18,500 1,463 Climbing Chicago Center
Sat 04:13:36 PM 42.3008 -86.4919 87° East 378 435 20,100 1,597 Climbing Chicago Center
Sat 04:14:38 PM 42.3056 -86.3558 87° East 367 422 21,800 1,500 Climbing Chicago Center
Sat 04:15:40 PM 42.3111 -86.2217 87° East 361 415 23,200 1,403 Climbing Chicago Center
Sat 04:16:42 PM 42.3156 -86.0628 88° East 357 411 24,700 1,355 Climbing Chicago Center
Sat 04:17:44 PM 42.3133 -85.9292 91° East 358 412 26,000 1,210 Climbing Chicago Center
Sat 04:18:46 PM 42.3119 -85.7983 91° East 354 407 27,200 1,210 Climbing Chicago Center
Sat 04:19:48 PM 42.3094 -85.6664 91° East 354 407 28,500 1,161 Climbing Chicago Center
Sat 04:20:50 PM 42.3086 -85.5361 90° East 351 404 29,600 968 Climbing Chicago Center
Sat 04:21:52 PM 42.3067 -85.4006 91° East 359 413 30,500 927 Climbing Chicago Center
Sat 04:22:53 PM 42.3031 -85.2350 92° East 368 423 31,500 976 Climbing Chicago Center
Sat 04:23:55 PM 42.3011 -85.0950 91° East 374 430 32,500 726 Climbing Chicago Center
Sat 04:24:57 PM 42.2983 -84.9522 91° East 380 437 33,000 242 Climbing Chicago Center
Sat 04:25:59 PM 42.2947 -84.8011 92° East 399 459 33,000  Level Chicago Center
Sat 04:27:01 PM 42.2900 -84.6414 92° East 422 486 33,000  Level Chicago Center
Sat 04:28:03 PM 42.2875 -84.4739 91° East 443 510 33,000  Level Chicago Center
Sat 04:28:47 PM 42.3033 -84.3231 82° East 439 505 33,000  Level Cleveland Center
Sat 04:29:47 PM 42.3297 -84.1561 78° East 444 511 33,000  Level Cleveland Center
Sat 04:30:47 PM 42.3536 -83.9858 79° East 444 511 33,000  Level Cleveland Center
Sat 04:31:47 PM 42.3772 -83.8158 79° East 454 522 33,000  Level Cleveland Center
Sat 04:32:47 PM 42.4028 -83.6425 79° East 460 529 33,000  Level Cleveland Center
Sat 04:33:47 PM 42.4117 -83.4658 86° East 467 537 33,000  Level Cleveland Center
Sat 04:34:47 PM 42.4156 -83.3000 88° East 459 528 33,000  Level Cleveland Center
Sat 04:35:47 PM 42.4236 -83.1372 86° East 460 529 33,000  Level Cleveland Center
Sat 04:36:47 PM 42.4294 -82.9631 87° East 460 529 33,000  Level Cleveland Center
Sat 04:37:47 PM 42.4347 -82.7917 88° East 455 524 33,000  Level Cleveland Center
Sat 04:38:47 PM 42.4400 -82.6175 88° East 460 529 33,000  Level Cleveland Center
Sat 04:39:47 PM 42.4431 -82.4403 89° East 460 529 33,000  Level Cleveland Center
Sat 04:40:47 PM 42.4500 -82.2631 87° East 460 529 33,000  Level Cleveland Center
Sat 04:41:47 PM 42.4528 -82.0689 89° East 465 535 33,000  Level Cleveland Center
Sat 04:42:47 PM 42.4589 -81.8919 87° East 473 544 33,000  Level Cleveland Center
Sat 04:43:47 PM 42.4628 -81.7286 88° East 473 544 33,000  Level Cleveland Center
Sat 04:44:47 PM 42.4689 -81.5344 87° East 473 544 33,000  Level Cleveland Center
Sat 04:45:47 PM 42.4722 -81.3600 88° East 470 541 33,000  Level Cleveland Center
Sat 04:46:47 PM 42.4733 -81.1800 89° East 470 541 33,000  Level Cleveland Center
Sat 04:47:47 PM 42.4761 -81.0025 89° East 470 541 33,000  Level Cleveland Center
Sat 04:48:47 PM 42.4808 -80.8253 88° East 470 541 33,000  Level Cleveland Center
Sat 04:49:47 PM 42.4831 -80.6508 89° East 470 541 33,000  Level Cleveland Center
Sat 04:50:47 PM 42.4831 -80.4733 90° East 470 541 33,000  Level Cleveland Center
Sat 04:51:47 PM 42.4850 -80.2961 89° East 470 541 33,000 -250 Level Cleveland Center
Sat 04:52:47 PM 42.4844 -80.1356 90° East 470 541 32,500 -700 Descending Cleveland Center
Sat 04:53:47 PM 42.4897 -79.9442 88° East 463 533 31,600 -800 Descending Cleveland Center
Sat 04:54:47 PM 42.5056 -79.8031 81° East 463 533 30,900 -1,100 Descending Cleveland Center
Sat 04:55:47 PM 42.5414 -79.5969 77° East 463 533 29,400 -1,350 Descending Cleveland Center
Sat 04:56:47 PM 42.5753 -79.4217 75° East 468 539 28,200 -700 Descending Cleveland Center
Sat 04:57:47 PM 42.6047 -79.2461 77° East 474 545 28,000 -100 Descending Cleveland Center
Sat 04:58:47 PM 42.6358 -79.0675 77° East 474 545 28,000 -150 Level Cleveland Center
Sat 04:59:47 PM 42.6667 -78.8919 77° East 474 545 27,700 -750 Descending Cleveland Center
Sat 05:00:47 PM 42.6972 -78.7158 77° East 474 545 26,500 -1,150 Descending Cleveland Center
Sat 05:01:47 PM 42.7256 -78.5425 77° East 474 545 25,400 -1,100 Descending Cleveland Center
Sat 05:02:47 PM 42.7558 -78.3636 77° East 474 545 24,300 -1,150 Descending Cleveland Center
Sat 05:03:47 PM 42.7856 -78.1928 77° East 469 540 23,100 -750 Descending Cleveland Center
Sat 05:04:47 PM 42.8133 -78.0217 77° East 469 540 22,800 -700 Descending Cleveland Center
Sat 05:05:47 PM 42.8406 -77.8536 77° East 464 534 21,700 -1,200 Descending Cleveland Center
Sat 05:06:47 PM 42.8658 -77.6881 78° East 451 519 20,400 -1,450 Descending Cleveland Center
Sat 05:07:47 PM 42.8892 -77.5453 77° East 438 504 18,800 -1,750 Descending Cleveland Center
Sat 05:08:47 PM 42.9142 -77.3825 78° East 433 498 16,900 -1,950 Descending Cleveland Center
Sat 05:09:47 PM 42.9411 -77.2308 76° East 422 486 14,900 -1,654 Descending Cleveland Center
Sat 05:12:21 PM 43.0017 -76.8269 78° East 395 455 11,000 -1,234 Descending Boston Center
Sat 05:13:21 PM 43.0317 -76.6928 73° East 359 413 10,500 -1,039 Descending Boston Center
Sat 05:14:28 PM 43.0678 -76.5617 69° East 303 349 8,800 -1,655 Descending Boston Center
Sat 05:15:17 PM 43.0897 -76.4750 71° East 304 350 7,300 -1,817 Descending Boston Center
Sat 05:16:17 PM 43.1183 -76.3686 70° East 300 345 5,500 -1,200 Descending Boston Center
Sat 05:17:12 PM 43.1425 -76.2736 71° East 293 337 5,000 -261 Descending Boston Center
Sat 05:18:12 PM 43.1686 -76.1783 69° East 248 285 5,000 -189 Level Boston Center
Sat 05:19:19 PM 43.2089 -76.0925 57° Northeast 249 287 4,600 -651 Descending Boston Center
Sat 05:20:21 PM 43.2264 -76.0022 75° East 243 280 3,600 -793 Descending Boston Center
Sat 05:21:20 PM 43.2189 -75.9106 96° East 232 267 3,000 -610 Descending Boston Center

Login

Don't have an account? Register now (free) for customized features, flight alerts, and more!